createdAt,value
2018-04-14T00:00:23.416Z,20.80
2018-04-14T00:02:51.852Z,23.20
2018-04-14T00:05:20.550Z,19.73
2018-04-14T00:07:49.280Z,20.77
2018-04-14T00:10:17.980Z,20.37
2018-04-14T00:12:46.884Z,22.17
2018-04-14T00:15:15.600Z,18.75
2018-04-14T00:17:44.236Z,22.57
2018-04-14T00:20:13.700Z,21.00
2018-04-14T00:22:42.203Z,23.73
2018-04-14T00:25:11.701Z,22.70
2018-04-14T00:27:40.410Z,23.10
2018-04-14T00:30:08.849Z,22.77
2018-04-14T00:32:38.045Z,27.97
2018-04-14T00:35:06.825Z,25.90
2018-04-14T00:37:36.377Z,23.30
2018-04-14T00:40:05.851Z,27.47
2018-04-14T00:42:35.045Z,27.63
2018-04-14T00:45:03.251Z,32.23
2018-04-14T00:47:32.517Z,26.57
2018-04-14T00:50:00.977Z,31.90
2018-04-14T00:52:29.698Z,29.30
2018-04-14T00:54:58.172Z,36.55
2018-04-14T00:57:27.363Z,33.67
2018-04-14T00:59:56.032Z,32.40
2018-04-14T01:02:24.472Z,34.43
2018-04-14T01:04:52.972Z,38.87
2018-04-14T01:07:21.437Z,36.53
2018-04-14T01:09:49.860Z,33.30
2018-04-14T01:12:19.053Z,31.90
2018-04-14T01:14:48.301Z,39.43
2018-04-14T01:17:17.785Z,34.95
2018-04-14T01:19:45.990Z,31.10
2018-04-14T01:22:14.369Z,35.87
2018-04-14T01:24:42.799Z,35.20
2018-04-14T01:27:11.173Z,40.97
2018-04-14T01:29:39.893Z,37.50
2018-04-14T01:32:08.409Z,34.95
2018-04-14T01:34:37.124Z,38.97
2018-04-14T01:37:06.325Z,38.30
2018-04-14T01:39:35.725Z,39.50
2018-04-14T01:42:03.965Z,36.67
2018-04-14T01:44:32.587Z,36.40
2018-04-14T01:47:01.776Z,36.97
2018-04-14T01:49:30.469Z,35.35
2018-04-14T01:51:59.180Z,36.20
2018-04-14T01:54:27.601Z,34.53
2018-04-14T01:56:56.028Z,36.70
2018-04-14T01:59:25.554Z,31.73
2018-04-14T02:01:54.416Z,34.90
2018-04-14T02:04:23.010Z,33.00
2018-04-14T02:06:52.672Z,35.10
2018-04-14T02:09:21.101Z,31.87
2018-04-14T02:11:49.066Z,31.60
2018-04-14T02:14:18.549Z,34.30
2018-04-14T02:16:47.736Z,27.50
2018-04-14T02:19:17.232Z,25.97
2018-04-14T02:21:46.436Z,26.60
2018-04-14T02:24:15.628Z,26.13
2018-04-14T02:26:44.824Z,24.30
2018-04-14T02:29:14.028Z,22.60
2018-04-14T02:31:42.722Z,20.98
2018-04-14T02:34:11.413Z,24.08
2018-04-14T02:36:40.032Z,23.33
2018-04-14T02:39:08.798Z,20.93
2018-04-14T02:41:37.234Z,18.63
2018-04-14T02:44:05.836Z,18.70
2018-04-14T02:46:35.029Z,17.30
2018-04-14T02:49:03.522Z,17.53
2018-04-14T02:51:31.964Z,16.63
2018-04-14T02:54:00.398Z,13.90
2018-04-14T02:56:29.129Z,18.17
2018-04-14T02:58:57.580Z,14.73
2018-04-14T03:01:26.002Z,16.07
2018-04-14T03:03:55.199Z,14.50
2018-04-14T03:06:23.918Z,13.27
2018-04-14T03:08:52.401Z,14.90
2018-04-14T03:11:21.041Z,18.40
2018-04-14T03:13:49.481Z,15.17
2018-04-14T03:16:18.191Z,14.13
2018-04-14T03:18:47.376Z,12.00
2018-04-14T03:21:15.945Z,13.80
2018-04-14T03:23:44.452Z,11.63
2018-04-14T03:26:13.569Z,10.55
2018-04-14T03:28:43.269Z,12.80
2018-04-14T03:31:11.859Z,11.50
2018-04-14T03:33:40.432Z,10.73
2018-04-14T03:36:08.889Z,11.40
2018-04-14T03:38:37.585Z,11.00
2018-04-14T03:41:05.669Z,10.07
2018-04-14T03:43:35.180Z,13.03
2018-04-14T03:46:04.357Z,8.30
2018-04-14T03:48:32.772Z,6.87
2018-04-14T03:51:02.272Z,7.60
2018-04-14T03:53:31.461Z,6.27
2018-04-14T03:56:00.140Z,7.87
2018-04-14T03:58:28.864Z,7.17
2018-04-14T04:00:58.316Z,6.10
2018-04-14T04:03:26.804Z,6.95
2018-04-14T04:05:55.696Z,6.15
2018-04-14T04:08:24.894Z,7.57
2018-04-14T04:10:53.336Z,6.10
2018-04-14T04:13:22.032Z,6.50
2018-04-14T04:15:50.456Z,6.93
2018-04-14T04:18:30.121Z,6.47
2018-04-14T04:21:10.847Z,8.00
2018-04-14T04:23:52.541Z,6.80
2018-04-14T04:26:21.737Z,5.73
2018-04-14T04:28:50.929Z,5.90
2018-04-14T04:31:19.635Z,9.38
2018-04-14T04:33:48.105Z,7.33
2018-04-14T04:36:17.298Z,6.73
2018-04-14T04:38:45.913Z,7.23
2018-04-14T04:41:14.396Z,7.70
2018-04-14T04:43:42.826Z,7.70
2018-04-14T04:46:11.376Z,6.83
2018-04-14T04:48:39.985Z,8.30
2018-04-14T04:51:08.696Z,6.57
2018-04-14T04:53:37.393Z,7.27
2018-04-14T04:56:05.861Z,8.47
2018-04-14T04:58:35.092Z,7.53
2018-04-14T05:01:03.681Z,7.20
2018-04-14T05:03:32.397Z,7.23
2018-04-14T05:06:01.089Z,6.43
2018-04-14T05:08:29.792Z,7.33
2018-04-14T05:10:58.516Z,7.77
2018-04-14T05:13:27.265Z,7.90
2018-04-14T05:15:55.964Z,7.47
2018-04-14T05:18:24.696Z,9.15
2018-04-14T05:20:53.117Z,12.83
2018-04-14T05:23:22.324Z,7.63
2018-04-14T05:25:51.506Z,7.53
2018-04-14T05:28:20.230Z,7.62
2018-04-14T05:30:48.879Z,9.53
2018-04-14T05:33:18.065Z,8.47
2018-04-14T05:35:46.556Z,6.47
2018-04-14T05:38:15.755Z,12.80
2018-04-14T05:40:44.612Z,6.77
2018-04-14T05:43:13.028Z,6.30
2018-04-14T05:45:41.636Z,7.50
2018-04-14T05:48:10.353Z,5.32
2018-04-14T05:50:38.840Z,6.30
2018-04-14T05:53:08.100Z,8.13
2018-04-14T05:55:36.546Z,5.77
2018-04-14T05:58:04.914Z,6.05
2018-04-14T06:00:33.526Z,4.93
2018-04-14T06:03:01.945Z,6.30
2018-04-14T06:05:30.392Z,7.63
2018-04-14T06:07:59.037Z,5.40
2018-04-14T06:10:27.509Z,6.17
2018-04-14T06:12:55.936Z,6.90
2018-04-14T06:15:24.633Z,6.37
2018-04-14T06:17:54.513Z,7.05
2018-04-14T06:20:22.993Z,5.57
2018-04-14T06:22:52.500Z,5.70
2018-04-14T06:25:20.956Z,5.62
2018-04-14T06:27:49.382Z,5.20
2018-04-14T06:30:17.853Z,6.90
2018-04-14T06:32:46.521Z,4.63
2018-04-14T06:35:15.701Z,6.03
2018-04-14T06:37:45.095Z,11.53
2018-04-14T06:40:14.857Z,6.00
2018-04-14T06:42:43.308Z,4.83
2018-04-14T06:45:12.006Z,6.50
2018-04-14T06:47:40.437Z,4.53
2018-04-14T06:50:09.246Z,6.20
2018-04-14T06:52:37.879Z,4.97
2018-04-14T06:55:06.307Z,5.93
2018-04-14T06:57:34.907Z,4.90
2018-04-14T07:00:03.238Z,6.10
2018-04-14T07:02:31.672Z,4.63
2018-04-14T07:05:00.102Z,7.40
2018-04-14T07:07:28.844Z,5.70
2018-04-14T07:09:57.320Z,3.60
2018-04-14T07:12:26.600Z,4.00
2018-04-14T07:14:55.808Z,5.73
2018-04-14T07:17:24.236Z,4.17
2018-04-14T07:19:52.669Z,5.13
2018-04-14T07:22:21.472Z,5.80
2018-04-14T07:24:49.898Z,6.33
2018-04-14T07:27:18.496Z,3.80
2018-04-14T07:29:47.715Z,6.37
2018-04-14T07:32:16.155Z,9.43
2018-04-14T07:34:44.347Z,6.50
2018-04-14T07:37:13.555Z,4.00
2018-04-14T07:39:42.009Z,6.57
2018-04-14T07:42:10.541Z,3.37
2018-04-14T07:44:38.985Z,5.43
2018-04-14T07:47:07.680Z,4.47
2018-04-14T07:49:36.379Z,6.82
2018-04-14T07:52:04.816Z,4.50
2018-04-14T07:54:33.351Z,4.20
2018-04-14T07:57:01.935Z,3.80
2018-04-14T07:59:30.584Z,5.50
2018-04-14T08:01:59.512Z,4.97
2018-04-14T08:04:28.253Z,6.37
2018-04-14T08:06:56.882Z,5.40
2018-04-14T08:09:25.309Z,2.57
2018-04-14T08:11:54.005Z,4.57
2018-04-14T08:14:23.209Z,2.50
2018-04-14T08:16:52.439Z,5.10
2018-04-14T08:19:21.025Z,5.10
2018-04-14T08:21:49.478Z,6.07
2018-04-14T08:24:19.638Z,3.50
2018-04-14T08:26:48.077Z,3.03
2018-04-14T08:29:17.319Z,6.10
2018-04-14T08:31:45.752Z,3.53
2018-04-14T08:34:14.300Z,7.17
2018-04-14T08:36:42.952Z,3.27
2018-04-14T08:39:11.188Z,3.37
2018-04-14T08:41:39.881Z,3.15
2018-04-14T08:44:09.103Z,6.40
2018-04-14T08:46:38.569Z,4.25
2018-04-14T08:49:07.781Z,4.50
2018-04-14T08:51:36.589Z,3.42
2018-04-14T08:54:05.961Z,11.10
2018-04-14T08:56:34.656Z,3.40
2018-04-14T08:59:03.458Z,4.07
2018-04-14T09:01:31.888Z,2.90
2018-04-14T09:04:00.326Z,4.50
2018-04-14T09:06:28.998Z,3.60
2018-04-14T09:08:58.462Z,3.97
2018-04-14T09:11:27.143Z,4.60
2018-04-14T09:13:55.580Z,3.03
2018-04-14T09:16:24.210Z,2.70
2018-04-14T09:18:52.832Z,3.37
2018-04-14T09:21:21.994Z,4.37
2018-04-14T09:23:51.238Z,5.70
2018-04-14T09:26:19.708Z,15.83
2018-04-14T09:28:49.188Z,4.30
2018-04-14T09:31:18.375Z,3.10
2018-04-14T09:33:47.021Z,3.23
2018-04-14T09:36:15.477Z,3.60
2018-04-14T09:38:43.950Z,2.37
2018-04-14T09:41:13.461Z,2.03
2018-04-14T09:43:42.943Z,2.10
2018-04-14T09:46:11.368Z,3.60
2018-04-14T09:48:39.970Z,4.57
2018-04-14T09:51:08.426Z,2.50
2018-04-14T09:53:36.859Z,5.47
2018-04-14T09:56:05.438Z,2.17
2018-04-14T09:58:34.662Z,3.27
2018-04-14T10:03:59.309Z,1.80
2018-04-14T10:06:27.757Z,6.50
2018-04-14T10:08:56.538Z,2.53
2018-04-14T10:11:25.236Z,2.47
2018-04-14T10:13:53.678Z,5.17
2018-04-14T10:16:22.373Z,3.87
2018-04-14T10:18:50.816Z,2.10
2018-04-14T10:21:19.243Z,2.00
2018-04-14T10:23:47.700Z,6.17
2018-04-14T10:26:16.392Z,1.40
2018-04-14T10:28:45.876Z,1.37
2018-04-14T10:31:14.725Z,2.00
2018-04-14T10:33:43.177Z,3.27
2018-04-14T10:36:11.638Z,2.80
2018-04-14T10:38:40.837Z,1.90
2018-04-14T10:41:09.273Z,2.30
2018-04-14T10:43:37.854Z,2.70
2018-04-14T10:46:06.308Z,2.23
2018-04-14T10:48:35.668Z,2.23
2018-04-14T10:51:04.887Z,2.13
2018-04-14T10:53:33.473Z,4.23
2018-04-14T10:56:02.248Z,3.47
2018-04-14T10:58:30.760Z,12.43
2018-04-14T11:00:59.371Z,6.23
2018-04-14T11:03:28.073Z,3.23
2018-04-14T11:05:57.063Z,2.50
2018-04-14T11:08:25.759Z,2.70
2018-04-14T11:10:55.061Z,3.33
2018-04-14T11:13:23.769Z,6.93
2018-04-14T11:15:52.277Z,2.13
2018-04-14T11:18:21.789Z,6.77
2018-04-14T11:20:50.246Z,1.90
2018-04-14T11:23:19.728Z,3.72
2018-04-14T11:25:48.186Z,2.40
2018-04-14T11:28:17.385Z,3.77
2018-04-14T11:30:46.093Z,3.35
2018-04-14T11:33:15.101Z,4.72
2018-04-14T11:35:44.565Z,2.15
2018-04-14T11:38:13.029Z,9.77
2018-04-14T11:40:41.577Z,1.70
2018-04-14T11:43:10.236Z,4.87
2018-04-14T11:45:38.127Z,1.77
2018-04-14T11:48:06.564Z,2.53
2018-04-14T11:50:35.759Z,2.30
2018-04-14T11:53:04.958Z,1.47
2018-04-14T11:55:34.276Z,1.23
2018-04-14T11:58:02.808Z,1.23
2018-04-14T12:00:31.237Z,1.10
2018-04-14T12:02:59.676Z,2.70
2018-04-14T12:05:28.109Z,0.70
2018-04-14T12:07:57.566Z,1.58
2018-04-14T12:10:26.002Z,2.83
2018-04-14T12:12:54.633Z,0.83
2018-04-14T12:15:23.875Z,1.30
2018-04-14T12:17:53.358Z,1.95
2018-04-14T12:20:21.987Z,0.90
2018-04-14T12:22:50.685Z,1.10
2018-04-14T12:25:19.129Z,3.80
2018-04-14T12:27:48.615Z,2.15
2018-04-14T12:30:17.053Z,2.70
2018-04-14T12:32:45.489Z,1.20
2018-04-14T12:35:13.917Z,7.57
2018-04-14T12:37:42.611Z,2.70
2018-04-14T12:40:11.171Z,2.00
2018-04-14T12:42:39.867Z,5.73
2018-04-14T13:10:51.573Z,1.83
2018-04-14T13:13:20.006Z,1.30
2018-04-14T13:15:48.700Z,1.58
2018-04-14T13:18:17.333Z,1.40
2018-04-14T13:20:46.040Z,1.10
2018-04-14T13:23:15.051Z,3.33
2018-04-14T13:25:44.264Z,2.73
2018-04-14T13:28:12.994Z,0.77
2018-04-14T13:30:41.601Z,0.73
2018-04-14T13:33:10.043Z,1.70
2018-04-14T13:35:38.469Z,2.17
2018-04-14T13:38:06.832Z,1.23
2018-04-14T13:40:35.288Z,0.63
2018-04-14T13:43:03.751Z,2.93
2018-04-14T13:45:33.229Z,1.27
2018-04-14T13:48:01.929Z,0.80
2018-04-14T13:50:30.357Z,0.73
2018-04-14T13:52:58.777Z,0.50
2018-04-14T13:55:27.349Z,1.10
2018-04-14T13:57:56.576Z,1.30
2018-04-14T14:00:25.011Z,2.53
2018-04-14T14:02:53.468Z,4.83
2018-04-14T14:05:21.917Z,1.37
2018-04-14T14:07:50.350Z,2.30
2018-04-14T14:10:19.089Z,1.05
2018-04-14T14:12:47.533Z,1.03
2018-04-14T14:15:16.227Z,0.67
2018-04-14T14:17:44.461Z,1.53
2018-04-14T14:20:13.154Z,2.73
2018-04-14T14:22:42.403Z,1.57
2018-04-14T14:25:11.933Z,2.00
2018-04-14T14:27:40.637Z,1.25
2018-04-14T14:30:09.097Z,2.30
2018-04-14T14:32:37.540Z,1.00
2018-04-14T14:35:05.984Z,3.33
2018-04-14T14:37:34.422Z,1.60
2018-04-14T14:40:02.885Z,3.60
2018-04-14T14:42:31.608Z,1.52
2018-04-14T14:45:00.712Z,1.47
2018-04-14T14:47:43.599Z,1.60
2018-04-14T14:50:17.359Z,2.20
2018-04-14T14:52:45.975Z,1.57
2018-04-14T14:55:14.617Z,2.40
2018-04-14T14:57:43.101Z,1.70
2018-04-14T15:00:11.817Z,1.80
2018-04-14T15:02:40.468Z,4.97
2018-04-14T15:05:09.344Z,3.67
2018-04-14T15:07:37.809Z,4.43
2018-04-14T15:10:07.041Z,2.77
2018-04-14T15:12:35.657Z,3.63
2018-04-14T15:15:03.769Z,2.90
2018-04-14T15:17:32.470Z,2.63
2018-04-14T15:20:01.298Z,2.30
2018-04-14T15:22:29.757Z,6.40
2018-04-14T15:24:58.468Z,2.22
2018-04-14T15:27:26.892Z,7.40
2018-04-14T15:29:55.633Z,3.37
2018-04-14T15:32:24.057Z,3.00
2018-04-14T15:34:52.517Z,8.27
2018-04-14T15:37:21.218Z,3.15
2018-04-14T15:39:49.668Z,7.83
2018-04-14T15:42:17.774Z,4.27
2018-04-14T15:44:46.210Z,3.67
2018-04-14T15:47:14.642Z,3.50
2018-04-14T15:49:43.109Z,3.83
2018-04-14T15:52:11.549Z,4.30
2018-04-14T15:54:40.917Z,4.40
2018-04-14T15:57:09.653Z,5.37
2018-04-14T15:59:38.092Z,4.73
2018-04-14T16:02:06.586Z,5.07
2018-04-14T16:04:35.032Z,4.27
2018-04-14T16:07:03.653Z,4.17
2018-04-14T16:09:33.328Z,2.97
2018-04-14T16:12:02.796Z,3.90
2018-04-14T16:14:31.495Z,4.20
2018-04-14T16:16:59.934Z,4.57
2018-04-14T16:19:28.120Z,4.23
2018-04-14T16:21:56.333Z,3.80
2018-04-14T16:24:25.029Z,6.57
2018-04-14T16:26:53.393Z,6.07
2018-04-14T16:29:21.831Z,3.03
2018-04-14T16:31:49.936Z,3.40
2018-04-14T16:34:18.750Z,3.42
2018-04-14T16:36:47.268Z,3.40
2018-04-14T16:39:15.735Z,2.47
2018-04-14T16:41:44.176Z,2.60
2018-04-14T16:44:13.498Z,2.93
2018-04-14T16:46:41.929Z,3.07
2018-04-14T16:49:10.653Z,4.40
2018-04-14T16:51:39.169Z,13.17
2018-04-14T16:54:07.757Z,27.67
2018-04-14T16:56:36.207Z,10.23
2018-04-14T16:59:04.795Z,9.13
2018-04-14T17:01:33.505Z,12.90
2018-04-14T17:04:01.945Z,10.73
2018-04-14T17:06:31.145Z,10.70
2018-04-14T17:09:00.348Z,13.03
2018-04-14T17:11:29.053Z,19.30
2018-04-14T17:13:58.554Z,11.30
2018-04-14T17:16:27.109Z,11.07
2018-04-14T17:18:55.820Z,6.70
2018-04-14T17:21:24.796Z,6.90
2018-04-14T17:23:54.421Z,8.30
2018-04-14T17:26:22.864Z,6.97
2018-04-14T17:28:51.571Z,10.52
2018-04-14T17:31:20.116Z,5.93
2018-04-14T17:33:48.560Z,4.63
2018-04-14T17:36:17.349Z,4.65
2018-04-14T17:38:47.184Z,6.90
2018-04-14T17:41:15.693Z,5.53
2018-04-14T17:43:45.405Z,3.77
2018-04-14T17:46:13.895Z,5.03
2018-04-14T17:48:42.650Z,4.45
2018-04-14T17:51:11.390Z,11.70
2018-04-14T17:53:39.821Z,4.33
2018-04-14T17:56:08.521Z,4.05
2018-04-14T17:58:37.252Z,4.15
2018-04-14T18:01:05.114Z,4.27
2018-04-14T18:03:33.610Z,6.87
2018-04-14T18:06:02.048Z,10.83
2018-04-14T18:08:30.636Z,5.10
2018-04-14T18:10:59.217Z,4.23
2018-04-14T18:13:27.936Z,4.47
2018-04-14T18:15:56.641Z,5.07
2018-04-14T18:18:25.064Z,6.40
2018-04-14T18:20:53.496Z,5.40
2018-04-14T18:23:21.930Z,4.13
2018-04-14T18:25:50.634Z,4.45
2018-04-14T18:28:20.116Z,7.87
2018-04-14T18:30:48.816Z,4.25
2018-04-14T18:33:18.281Z,7.57
2018-04-14T18:35:47.490Z,3.70
2018-04-14T18:38:16.182Z,5.30
2018-04-14T18:40:44.743Z,5.57
2018-04-14T18:43:13.470Z,3.80
2018-04-14T18:45:42.599Z,6.50
2018-04-14T18:48:11.134Z,5.40
2018-04-14T18:50:39.633Z,4.40
2018-04-14T18:53:09.121Z,5.10
2018-04-14T18:55:37.824Z,5.70
2018-04-14T18:58:06.580Z,4.60
2018-04-14T19:00:35.017Z,5.80
2018-04-14T19:03:03.438Z,5.43
2018-04-14T19:05:32.150Z,7.45
2018-04-14T19:08:01.675Z,9.63
2018-04-14T19:10:30.375Z,5.90
2018-04-14T19:12:59.081Z,4.87
2018-04-14T19:15:28.278Z,5.83
2018-04-14T19:17:57.031Z,5.20
2018-04-14T19:20:26.253Z,7.47
2018-04-14T19:22:55.866Z,4.80
2018-04-14T19:25:25.134Z,5.73
2018-04-14T19:27:54.753Z,7.10
2018-04-14T19:30:23.288Z,4.70
2018-04-14T19:32:51.758Z,6.17
2018-04-14T19:35:20.468Z,6.80
2018-04-14T19:37:49.019Z,5.97
2018-04-14T19:40:17.620Z,6.13
2018-04-14T19:42:46.065Z,7.63
2018-04-14T19:45:14.774Z,6.47
2018-04-14T19:47:43.569Z,6.73
2018-04-14T19:50:12.088Z,7.50
2018-04-14T19:52:41.520Z,7.70
2018-04-14T19:55:10.716Z,7.73
2018-04-14T19:57:39.948Z,5.93
2018-04-14T20:00:08.386Z,6.70
2018-04-14T20:02:37.581Z,7.23
2018-04-14T20:05:06.450Z,9.20
2018-04-14T20:07:35.882Z,7.40
2018-04-14T20:10:05.088Z,7.87
2018-04-14T20:12:33.544Z,11.57
2018-04-14T20:15:02.242Z,8.10
2018-04-14T20:17:30.802Z,9.40
2018-04-14T20:19:59.247Z,7.30
2018-04-14T20:22:27.699Z,8.17
2018-04-14T20:24:56.145Z,6.67
2018-04-14T20:27:24.769Z,8.30
2018-04-14T20:29:53.203Z,9.80
2018-04-14T20:32:21.645Z,8.30
2018-04-14T20:34:51.135Z,8.95
2018-04-14T20:37:20.005Z,7.35
2018-04-14T20:39:49.201Z,6.07
2018-04-14T20:42:18.409Z,5.90
2018-04-14T20:44:47.373Z,10.60
2018-04-14T20:47:16.077Z,11.45
2018-04-14T20:49:45.289Z,5.13
2018-04-14T20:52:14.005Z,6.00
2018-04-14T20:54:42.693Z,6.90
2018-04-14T20:57:11.139Z,7.43
2018-04-14T20:59:39.566Z,8.03
2018-04-14T21:02:08.001Z,6.47
2018-04-14T21:04:37.285Z,6.57
2018-04-14T21:07:06.828Z,6.77
2018-04-14T21:09:35.296Z,6.47
2018-04-14T21:12:03.732Z,5.50
2018-04-14T21:14:33.240Z,6.63
2018-04-14T21:17:01.937Z,5.90
2018-04-14T21:19:30.535Z,4.20
2018-04-14T21:22:00.350Z,4.63
2018-04-14T21:24:29.048Z,7.70
2018-04-14T21:26:58.524Z,6.97
2018-04-14T21:29:27.012Z,5.80
2018-04-14T21:31:55.448Z,5.93
2018-04-14T21:34:24.878Z,5.27
2018-04-14T21:36:53.347Z,5.27
2018-04-14T21:39:22.285Z,5.15
2018-04-14T21:41:50.913Z,8.40
2018-04-14T21:44:20.122Z,5.70
2018-04-14T21:46:49.322Z,4.57
2018-04-14T21:49:18.548Z,5.03
2018-04-14T21:51:48.016Z,7.87
2018-04-14T21:54:17.213Z,6.53
2018-04-14T21:56:45.924Z,6.35
2018-04-14T21:59:15.291Z,4.63
2018-04-14T22:01:43.825Z,6.10
2018-04-14T22:04:12.273Z,5.37
2018-04-14T22:06:40.979Z,5.97
2018-04-14T22:09:10.459Z,10.50
2018-04-14T22:11:39.438Z,9.43
2018-04-14T22:14:07.926Z,5.30
2018-04-14T22:16:36.790Z,5.73
2018-04-14T22:19:05.166Z,7.13
2018-04-14T22:21:33.870Z,7.15
2018-04-14T22:24:02.438Z,7.90
2018-04-14T22:26:31.144Z,9.82
2018-04-14T22:28:59.814Z,8.57
2018-04-14T22:31:28.608Z,10.77
2018-04-14T22:33:57.337Z,6.82
2018-04-14T22:36:25.965Z,6.53
2018-04-14T22:38:54.588Z,10.27
2018-04-14T22:41:23.313Z,7.97
2018-04-14T22:43:51.780Z,7.65
2018-04-14T22:46:20.204Z,6.87
2018-04-14T22:48:48.687Z,7.27
2018-04-14T22:51:17.894Z,7.77
2018-04-14T22:53:47.094Z,8.30
2018-04-14T22:56:15.576Z,6.60
2018-04-14T22:58:44.022Z,8.50
2018-04-14T23:01:12.457Z,10.20
2018-04-14T23:03:40.981Z,7.33
2018-04-14T23:06:09.773Z,7.80
2018-04-14T23:08:38.081Z,5.90
2018-04-14T23:11:06.779Z,7.12
2018-04-14T23:13:35.227Z,6.27
2018-04-14T23:16:04.442Z,7.20
2018-04-14T23:18:33.761Z,5.97
2018-04-14T23:21:03.210Z,5.27
2018-04-14T23:23:31.771Z,10.03
2018-04-14T23:26:00.228Z,8.30
2018-04-14T23:28:28.701Z,10.10
2018-04-14T23:30:58.172Z,9.03
2018-04-14T23:33:27.549Z,7.63
2018-04-14T23:35:56.255Z,5.80
2018-04-14T23:38:24.713Z,8.70
2018-04-14T23:40:53.256Z,7.07
2018-04-14T23:43:21.697Z,15.27
2018-04-14T23:45:50.947Z,6.33
2018-04-14T23:48:20.206Z,6.40
2018-04-14T23:50:49.407Z,12.73
2018-04-14T23:53:18.105Z,7.93
2018-04-14T23:55:46.577Z,6.90
2018-04-14T23:58:15.020Z,9.37
